createdAt,value
2023-01-07T00:01:12.964Z,78.73
2023-01-07T00:03:40.410Z,78.57
2023-01-07T00:06:10.510Z,78.59
2023-01-07T00:08:39.504Z,78.41
2023-01-07T00:11:10.310Z,78.47
2023-01-07T00:13:37.473Z,78.37
2023-01-07T00:16:07.424Z,78.50
2023-01-07T00:18:34.831Z,78.37
2023-01-07T00:21:03.632Z,78.83
2023-01-07T00:23:32.000Z,78.87
2023-01-07T00:26:00.931Z,78.94
2023-01-07T00:28:27.731Z,79.53
2023-01-07T00:31:06.083Z,79.22
2023-01-07T00:33:34.828Z,79.35
2023-01-07T00:36:08.234Z,79.24
2023-01-07T00:38:36.307Z,79.58
2023-01-07T00:41:03.411Z,80.22
2023-01-07T00:43:30.209Z,79.90
2023-01-07T00:45:57.049Z,79.38
2023-01-07T00:48:23.706Z,78.92
2023-01-07T00:50:52.613Z,78.51
2023-01-07T00:53:19.877Z,77.99
2023-01-07T00:55:49.317Z,77.68
2023-01-07T00:58:21.201Z,78.15
2023-01-07T01:00:48.179Z,78.69
2023-01-07T01:03:14.979Z,78.24
2023-01-07T01:05:41.758Z,78.22
2023-01-07T01:08:08.797Z,78.04
2023-01-07T01:10:36.236Z,78.01
2023-01-07T01:13:03.177Z,77.89
2023-01-07T01:15:29.745Z,77.94
2023-01-07T01:17:56.348Z,77.67
2023-01-07T01:20:23.318Z,77.82
2023-01-07T01:22:49.925Z,77.60
2023-01-07T01:25:16.488Z,77.85
2023-01-07T01:27:43.416Z,77.66
2023-01-07T01:30:10.723Z,77.56
2023-01-07T01:32:37.953Z,78.25
2023-01-07T01:35:05.175Z,78.19
2023-01-07T01:37:31.805Z,78.23
2023-01-07T01:39:58.267Z,77.95
2023-01-07T01:42:25.244Z,78.38
2023-01-07T01:44:58.057Z,78.49
2023-01-07T01:47:47.348Z,78.52
2023-01-07T01:50:25.584Z,78.03
2023-01-07T01:53:16.092Z,78.18
2023-01-07T01:55:50.941Z,78.07
2023-01-07T01:58:23.561Z,77.82
2023-01-07T02:00:51.184Z,77.65
2023-01-07T02:03:20.895Z,77.79
2023-01-07T02:05:48.263Z,77.97
2023-01-07T02:08:21.137Z,78.01
2023-01-07T02:11:08.156Z,77.66
2023-01-07T02:14:03.296Z,78.25
2023-01-07T02:16:55.556Z,78.34
2023-01-07T02:20:01.377Z,77.90
2023-01-07T02:22:54.106Z,77.89
2023-01-07T02:25:46.518Z,78.70
2023-01-07T02:28:44.505Z,78.47
2023-01-07T02:31:33.257Z,78.39
2023-01-07T02:34:24.594Z,78.57
2023-01-07T02:37:09.746Z,78.54
2023-01-07T02:39:54.663Z,78.71
2023-01-07T02:42:35.391Z,79.09
2023-01-07T02:45:15.631Z,78.83
2023-01-07T02:47:54.450Z,78.74
2023-01-07T02:50:20.942Z,78.47
2023-01-07T02:52:47.406Z,78.56
2023-01-07T02:55:20.338Z,78.37
2023-01-07T02:58:18.530Z,78.54
2023-01-07T03:01:17.686Z,78.48
2023-01-07T03:04:03.800Z,78.60
2023-01-07T03:07:06.607Z,78.93
2023-01-07T03:09:44.602Z,79.25
2023-01-07T03:12:36.148Z,80.41
2023-01-07T03:15:20.783Z,81.21
2023-01-07T03:17:57.467Z,81.07
2023-01-07T03:20:24.522Z,82.30
2023-01-07T03:22:52.720Z,84.25
2023-01-07T03:25:21.735Z,85.05
2023-01-07T03:27:52.275Z,86.57
2023-01-07T03:30:20.290Z,86.86
2023-01-07T03:33:01.895Z,87.01
2023-01-07T03:35:31.505Z,87.80
2023-01-07T03:38:00.985Z,87.71
2023-01-07T03:40:27.978Z,86.79
2023-01-07T03:42:54.884Z,87.53
2023-01-07T03:45:24.640Z,86.95
2023-01-07T03:47:55.334Z,88.20
2023-01-07T03:50:22.942Z,88.08
2023-01-07T03:52:50.376Z,87.29
2023-01-07T03:55:17.826Z,87.51
2023-01-07T03:57:45.074Z,86.62
2023-01-07T04:00:12.548Z,86.28
2023-01-07T04:02:44.655Z,86.78
2023-01-07T04:05:18.326Z,85.98
2023-01-07T04:07:45.098Z,85.68
2023-01-07T04:10:14.103Z,85.47
2023-01-07T04:12:41.095Z,85.25
2023-01-07T04:15:07.906Z,84.87
2023-01-07T04:17:34.615Z,84.77
2023-01-07T04:20:01.094Z,84.67
2023-01-07T04:22:27.844Z,84.77
2023-01-07T04:24:54.306Z,84.84
2023-01-07T04:27:20.683Z,84.55
2023-01-07T04:29:47.579Z,84.53
2023-01-07T04:32:14.803Z,86.43
2023-01-07T04:34:41.449Z,87.33
2023-01-07T04:37:08.347Z,86.24
2023-01-07T04:39:35.380Z,87.30
2023-01-07T04:42:02.076Z,86.85
2023-01-07T04:44:28.897Z,86.46
2023-01-07T04:46:56.087Z,86.43
2023-01-07T04:49:22.816Z,86.08
2023-01-07T04:51:49.509Z,87.73
2023-01-07T04:54:16.287Z,87.29
2023-01-07T04:56:42.891Z,89.10
2023-01-07T04:59:09.543Z,89.61
2023-01-07T05:01:36.173Z,88.56
2023-01-07T05:04:02.996Z,87.44
2023-01-07T05:06:31.058Z,87.25
2023-01-07T05:08:58.084Z,86.94
2023-01-07T05:11:24.870Z,86.61
2023-01-07T05:13:53.102Z,86.34
2023-01-07T05:16:20.616Z,86.30
2023-01-07T05:18:47.548Z,86.42
2023-01-07T05:21:14.238Z,86.61
2023-01-07T05:23:40.924Z,86.63
2023-01-07T05:26:07.855Z,86.29
2023-01-07T05:28:34.460Z,86.24
2023-01-07T05:31:01.476Z,86.34
2023-01-07T05:33:28.910Z,86.77
2023-01-07T05:35:55.313Z,86.71
2023-01-07T05:38:23.065Z,86.01
2023-01-07T05:40:50.220Z,85.89
2023-01-07T05:43:20.607Z,85.78
2023-01-07T05:45:47.244Z,85.95
2023-01-07T05:48:14.200Z,86.42
2023-01-07T05:50:41.245Z,86.54
2023-01-07T05:53:07.795Z,87.40
2023-01-07T05:55:37.478Z,87.45
2023-01-07T05:58:05.472Z,87.07
2023-01-07T06:00:32.404Z,87.93
2023-01-07T06:02:59.022Z,87.26
2023-01-07T06:05:25.527Z,86.77
2023-01-07T06:07:51.955Z,86.21
2023-01-07T06:10:18.462Z,86.25
2023-01-07T06:12:44.899Z,86.86
2023-01-07T06:15:11.516Z,87.87
2023-01-07T06:17:38.052Z,88.81
2023-01-07T06:20:05.406Z,89.41
2023-01-07T06:22:31.846Z,89.29
2023-01-07T06:24:58.396Z,89.55
2023-01-07T06:27:24.865Z,89.87
2023-01-07T06:29:51.378Z,90.53
2023-01-07T06:32:17.997Z,90.35
2023-01-07T06:34:44.573Z,89.90
2023-01-07T06:37:11.171Z,89.10
2023-01-07T06:39:37.608Z,89.01
2023-01-07T06:42:04.128Z,88.50
2023-01-07T06:44:30.673Z,88.26
2023-01-07T06:46:57.199Z,88.24
2023-01-07T06:49:24.304Z,87.98
2023-01-07T06:51:50.730Z,88.02
2023-01-07T06:54:17.335Z,87.77
2023-01-07T06:56:43.878Z,87.40
2023-01-07T06:59:10.712Z,87.61
2023-01-07T07:01:37.278Z,88.04
2023-01-07T07:04:03.960Z,87.68
2023-01-07T07:06:30.555Z,87.90
2023-01-07T07:08:56.990Z,88.33
2023-01-07T07:11:23.550Z,87.66
2023-01-07T07:13:50.207Z,87.37
2023-01-07T07:16:16.733Z,88.17
2023-01-07T07:18:43.315Z,88.11
2023-01-07T07:21:10.012Z,88.31
2023-01-07T07:23:36.539Z,88.42
2023-01-07T07:26:03.277Z,89.38
2023-01-07T07:28:29.846Z,88.35
2023-01-07T07:30:56.581Z,88.18
2023-01-07T07:33:23.196Z,87.90
2023-01-07T07:35:49.689Z,87.53
2023-01-07T07:38:17.998Z,87.47
2023-01-07T07:40:45.970Z,88.24
2023-01-07T07:43:13.371Z,89.36
2023-01-07T07:45:41.093Z,89.65
2023-01-07T07:48:09.142Z,88.81
2023-01-07T07:50:36.252Z,88.93
2023-01-07T07:53:03.223Z,89.26
2023-01-07T07:55:29.791Z,88.86
2023-01-07T07:57:57.648Z,88.33
2023-01-07T08:00:24.377Z,87.86
2023-01-07T08:02:51.051Z,88.00
2023-01-07T08:05:17.766Z,87.97
2023-01-07T08:07:44.284Z,87.71
2023-01-07T08:10:10.926Z,87.67
2023-01-07T08:12:38.338Z,87.15
2023-01-07T08:15:06.951Z,86.95
2023-01-07T08:17:35.524Z,86.86
2023-01-07T08:20:03.603Z,86.73
2023-01-07T08:22:30.340Z,86.42
2023-01-07T08:24:56.921Z,86.18
2023-01-07T08:27:23.604Z,85.80
2023-01-07T08:29:50.144Z,85.96
2023-01-07T08:32:16.730Z,85.60
2023-01-07T08:34:43.302Z,85.78
2023-01-07T08:37:10.325Z,85.75
2023-01-07T08:39:37.363Z,85.66
2023-01-07T08:42:04.173Z,85.53
2023-01-07T08:44:31.777Z,85.53
2023-01-07T08:46:58.458Z,85.36
2023-01-07T08:49:25.083Z,85.32
2023-01-07T08:51:51.593Z,85.26
2023-01-07T08:54:18.254Z,85.30
2023-01-07T08:56:44.784Z,85.51
2023-01-07T08:59:11.473Z,86.52
2023-01-07T09:01:38.364Z,85.92
2023-01-07T09:04:05.179Z,85.78
2023-01-07T09:06:31.749Z,85.64
2023-01-07T09:08:58.352Z,86.15
2023-01-07T09:11:25.038Z,87.92
2023-01-07T09:13:51.671Z,87.66
2023-01-07T09:16:20.088Z,87.78
2023-01-07T09:18:47.067Z,87.53
2023-01-07T09:21:13.569Z,88.04
2023-01-07T09:23:45.956Z,87.74
2023-01-07T09:26:15.389Z,87.25
2023-01-07T09:28:41.948Z,87.02
2023-01-07T09:31:10.110Z,86.71
2023-01-07T09:33:37.161Z,86.66
2023-01-07T09:36:05.014Z,86.38
2023-01-07T09:38:32.348Z,86.23
2023-01-07T09:40:58.895Z,86.15
2023-01-07T09:44:00.533Z,86.18
2023-01-07T09:46:26.560Z,86.03
2023-01-07T09:49:00.512Z,86.11
2023-01-07T09:51:39.455Z,86.08
2023-01-07T09:54:28.774Z,85.87
2023-01-07T09:56:55.825Z,85.80
2023-01-07T09:59:22.614Z,85.69
2023-01-07T10:02:00.799Z,85.55
2023-01-07T10:04:35.963Z,85.57
2023-01-07T10:07:19.053Z,85.41
2023-01-07T10:10:13.515Z,85.47
2023-01-07T10:13:03.787Z,85.45
2023-01-07T10:15:48.929Z,85.61
2023-01-07T10:18:43.368Z,87.36
2023-01-07T10:21:26.831Z,87.36
2023-01-07T10:24:02.609Z,86.71
2023-01-07T10:26:35.203Z,86.44
2023-01-07T10:29:11.200Z,86.14
2023-01-07T10:31:38.790Z,85.90
2023-01-07T10:34:13.714Z,85.77
2023-01-07T10:36:54.347Z,85.90
2023-01-07T10:39:44.626Z,85.33
2023-01-07T10:42:22.235Z,85.11
2023-01-07T10:45:09.448Z,84.54
2023-01-07T10:47:55.142Z,84.97
2023-01-07T10:50:48.361Z,85.23
2023-01-07T10:53:31.289Z,84.71
2023-01-07T10:56:19.764Z,84.69
2023-01-07T10:58:48.843Z,84.52
2023-01-07T11:01:31.092Z,84.36
2023-01-07T11:03:59.343Z,85.32
2023-01-07T11:06:57.795Z,85.42
2023-01-07T11:09:30.094Z,86.17
2023-01-07T11:12:02.117Z,85.66
2023-01-07T11:14:33.565Z,85.94
2023-01-07T11:17:12.097Z,85.93
2023-01-07T11:19:45.080Z,86.16
2023-01-07T11:22:30.854Z,85.90
2023-01-07T11:24:58.936Z,85.64
2023-01-07T11:27:33.040Z,85.63
2023-01-07T11:30:09.523Z,85.69
2023-01-07T11:32:39.561Z,85.78
2023-01-07T11:35:22.607Z,85.32
2023-01-07T11:37:50.033Z,85.16
2023-01-07T11:40:21.225Z,85.06
2023-01-07T11:42:52.898Z,86.48
2023-01-07T11:45:25.684Z,87.09
2023-01-07T11:48:17.221Z,86.68
2023-01-07T11:50:58.783Z,86.28
2023-01-07T11:53:36.077Z,87.51
2023-01-07T11:56:06.943Z,86.70
2023-01-07T11:58:37.230Z,86.41
2023-01-07T12:01:15.680Z,86.40
2023-01-07T12:04:01.119Z,85.87
2023-01-07T12:06:32.185Z,85.84
2023-01-07T12:09:30.447Z,85.57
2023-01-07T12:12:27.915Z,85.05
2023-01-07T12:15:11.223Z,84.57
2023-01-07T12:17:46.903Z,84.67
2023-01-07T12:20:35.631Z,84.87
2023-01-07T12:23:45.697Z,84.87
2023-01-07T12:26:20.975Z,84.85
2023-01-07T12:29:13.653Z,85.48
2023-01-07T12:32:02.694Z,86.69
2023-01-07T12:34:48.768Z,86.63
2023-01-07T12:37:49.729Z,86.35
2023-01-07T12:40:32.410Z,86.66
2023-01-07T12:43:08.775Z,85.95
2023-01-07T12:45:44.962Z,86.12
2023-01-07T12:48:30.160Z,85.87
2023-01-07T12:51:01.107Z,85.81
2023-01-07T12:53:38.951Z,86.09
2023-01-07T12:56:17.804Z,86.48
2023-01-07T12:59:10.525Z,86.06
2023-01-07T13:02:11.190Z,85.57
2023-01-07T13:04:59.824Z,85.68
2023-01-07T13:07:38.583Z,86.09
2023-01-07T13:10:15.842Z,85.89
2023-01-07T13:12:43.637Z,85.71
2023-01-07T13:15:26.912Z,85.58
2023-01-07T13:17:57.224Z,85.30
2023-01-07T13:20:41.909Z,85.48
2023-01-07T13:23:18.060Z,85.36
2023-01-07T13:26:02.869Z,85.23
2023-01-07T13:28:55.408Z,85.45
2023-01-07T13:31:39.182Z,85.11
2023-01-07T13:34:23.332Z,84.77
2023-01-07T13:37:16.105Z,85.21
2023-01-07T13:40:11.016Z,85.05
2023-01-07T13:42:48.371Z,85.04
2023-01-07T13:45:21.079Z,87.71
2023-01-07T13:47:51.491Z,88.68
2023-01-07T13:50:23.036Z,88.16
2023-01-07T13:53:00.292Z,88.85
2023-01-07T13:55:32.233Z,90.52
2023-01-07T13:57:58.937Z,89.95
2023-01-07T14:00:39.644Z,89.09
2023-01-07T14:03:32.458Z,90.35
2023-01-07T14:06:39.013Z,89.19
2023-01-07T14:09:15.594Z,88.67
2023-01-07T14:11:56.878Z,88.41
2023-01-07T14:14:48.301Z,88.33
2023-01-07T14:17:48.522Z,88.14
2023-01-07T14:20:38.046Z,88.25
2023-01-07T14:23:26.740Z,88.11
2023-01-07T14:26:21.898Z,87.74
2023-01-07T14:29:07.067Z,87.67
2023-01-07T14:31:34.021Z,88.02
2023-01-07T14:34:08.404Z,87.62
2023-01-07T14:37:10.901Z,87.64
2023-01-07T14:39:42.354Z,88.27
2023-01-07T14:42:25.710Z,88.12
2023-01-07T14:44:52.363Z,87.81
2023-01-07T14:47:50.384Z,88.10
2023-01-07T14:50:37.261Z,87.70
2023-01-07T14:53:42.350Z,87.83
2023-01-07T14:56:35.025Z,87.68
2023-01-07T14:59:21.212Z,88.88
2023-01-07T15:02:21.465Z,89.71
2023-01-07T15:05:22.480Z,90.38
2023-01-07T15:08:16.150Z,90.60
2023-01-07T15:11:02.140Z,90.47
2023-01-07T15:13:42.116Z,89.80
2023-01-07T15:16:11.269Z,89.28
2023-01-07T15:18:53.578Z,88.92
2023-01-07T15:21:44.510Z,88.87
2023-01-07T15:24:27.054Z,88.76
2023-01-07T15:27:11.094Z,89.27
2023-01-07T15:30:17.459Z,89.08
2023-01-07T15:33:24.054Z,89.05
2023-01-07T15:35:51.300Z,89.65
2023-01-07T15:38:45.240Z,89.35
2023-01-07T15:41:31.217Z,89.49
2023-01-07T15:44:00.429Z,89.64
2023-01-07T15:46:29.581Z,89.48
2023-01-07T15:49:17.199Z,89.65
2023-01-07T15:51:48.266Z,90.20
2023-01-07T15:54:30.453Z,90.02
2023-01-07T15:57:03.572Z,89.96
2023-01-07T15:59:33.387Z,89.50
2023-01-07T16:02:05.854Z,89.94
2023-01-07T16:04:37.577Z,89.72
2023-01-07T16:07:04.061Z,89.49
2023-01-07T16:09:32.758Z,89.33
2023-01-07T16:12:00.676Z,89.32
2023-01-07T16:14:27.527Z,89.73
2023-01-07T16:17:12.924Z,88.99
2023-01-07T16:19:39.978Z,89.09
2023-01-07T16:22:11.983Z,88.98
2023-01-07T16:24:44.641Z,89.22
2023-01-07T16:27:11.305Z,90.52
2023-01-07T16:29:52.183Z,91.42
2023-01-07T16:32:20.844Z,92.22
2023-01-07T16:34:56.604Z,91.38
2023-01-07T16:37:23.564Z,90.94
2023-01-07T16:39:52.145Z,91.84
2023-01-07T16:42:23.976Z,91.04
2023-01-07T16:44:58.636Z,90.91
2023-01-07T16:47:28.416Z,90.69
2023-01-07T16:50:02.128Z,90.52
2023-01-07T16:52:32.839Z,91.02
2023-01-07T16:54:59.780Z,90.76
2023-01-07T16:57:39.591Z,91.10
2023-01-07T17:00:17.198Z,90.81
2023-01-07T17:03:00.113Z,90.92
2023-01-07T17:05:31.549Z,91.43
2023-01-07T17:08:04.603Z,91.15
2023-01-07T17:10:34.559Z,91.03
2023-01-07T17:13:05.014Z,90.67
2023-01-07T17:15:38.645Z,90.55
2023-01-07T17:18:26.796Z,90.33
2023-01-07T17:20:56.524Z,90.69
2023-01-07T17:23:31.731Z,90.95
2023-01-07T17:26:03.667Z,90.60
2023-01-07T17:28:33.653Z,90.46
2023-01-07T17:31:01.107Z,90.81
2023-01-07T17:33:28.115Z,90.65
2023-01-07T17:35:56.795Z,91.00
2023-01-07T17:38:23.609Z,91.41
2023-01-07T17:40:55.089Z,90.85
2023-01-07T17:43:40.215Z,90.76
2023-01-07T17:46:10.975Z,91.29
2023-01-07T17:48:38.166Z,91.51
2023-01-07T17:51:06.477Z,92.69
2023-01-07T17:53:42.022Z,92.82
2023-01-07T17:56:08.959Z,93.00
2023-01-07T17:58:37.045Z,92.75
2023-01-07T18:01:08.327Z,93.17
2023-01-07T18:03:35.727Z,93.80
2023-01-07T18:06:02.869Z,93.13
2023-01-07T18:08:29.593Z,92.87
2023-01-07T18:11:15.251Z,92.90
2023-01-07T18:13:42.173Z,92.58
2023-01-07T18:16:13.606Z,92.18
2023-01-07T18:18:40.267Z,92.03
2023-01-07T18:21:15.105Z,91.94
2023-01-07T18:23:41.822Z,92.03
2023-01-07T18:26:09.203Z,91.79
2023-01-07T18:28:35.697Z,91.57
2023-01-07T18:31:02.174Z,92.00
2023-01-07T18:33:29.481Z,91.74
2023-01-07T18:35:56.104Z,91.56
2023-01-07T18:38:23.006Z,91.29
2023-01-07T18:40:49.730Z,91.16
2023-01-07T18:43:18.020Z,91.45
2023-01-07T18:45:46.074Z,91.58
2023-01-07T18:48:14.193Z,91.48
2023-01-07T18:50:43.279Z,91.27
2023-01-07T18:53:10.909Z,91.17
2023-01-07T18:55:41.098Z,91.51
2023-01-07T18:58:10.070Z,91.64
2023-01-07T19:00:36.964Z,93.08
2023-01-07T19:03:03.629Z,92.45
2023-01-07T19:05:30.307Z,92.03
2023-01-07T19:07:57.002Z,91.82
2023-01-07T19:10:25.021Z,91.79
2023-01-07T19:12:51.874Z,91.54
2023-01-07T19:15:18.926Z,92.66
2023-01-07T19:17:45.515Z,93.39
2023-01-07T19:20:14.519Z,93.03
2023-01-07T19:22:41.272Z,93.24
2023-01-07T19:25:08.993Z,92.76
2023-01-07T19:27:35.586Z,92.84
2023-01-07T19:30:02.145Z,92.81
2023-01-07T19:32:29.723Z,93.33
2023-01-07T19:34:56.191Z,92.87
2023-01-07T19:37:22.747Z,92.63
2023-01-07T19:39:49.366Z,92.40
2023-01-07T19:42:15.872Z,92.62
2023-01-07T19:44:42.539Z,92.81
2023-01-07T19:47:09.136Z,92.66
2023-01-07T19:49:35.791Z,92.86
2023-01-07T19:52:02.612Z,92.91
2023-01-07T19:54:29.187Z,92.53
2023-01-07T19:56:55.766Z,92.31
2023-01-07T19:59:22.431Z,92.10
2023-01-07T20:01:49.289Z,92.08
2023-01-07T20:04:16.075Z,92.11
2023-01-07T20:06:42.787Z,91.84
2023-01-07T20:09:10.822Z,91.87
2023-01-07T20:11:38.920Z,91.63
2023-01-07T20:14:06.966Z,91.63
2023-01-07T20:16:36.075Z,91.44
2023-01-07T20:19:02.653Z,91.24
2023-01-07T20:21:29.473Z,91.25
2023-01-07T20:23:56.161Z,91.25
2023-01-07T20:26:26.638Z,91.30
2023-01-07T20:28:54.115Z,91.53
2023-01-07T20:31:22.799Z,91.52
2023-01-07T20:33:49.774Z,91.69
2023-01-07T20:36:19.714Z,91.68
2023-01-07T20:38:47.233Z,91.88
2023-01-07T20:41:18.783Z,91.96
2023-01-07T20:43:51.067Z,91.77
2023-01-07T20:46:17.941Z,91.73
2023-01-07T20:48:44.483Z,91.53
2023-01-07T20:51:13.393Z,91.69
2023-01-07T20:53:40.508Z,91.53
2023-01-07T20:56:07.353Z,91.45
2023-01-07T20:58:35.571Z,91.24
2023-01-07T21:01:09.401Z,90.95
2023-01-07T21:03:38.137Z,90.89
2023-01-07T21:06:08.339Z,90.71
2023-01-07T21:08:36.746Z,90.89
2023-01-07T21:11:03.921Z,90.78
2023-01-07T21:13:30.435Z,90.79
2023-01-07T21:16:04.816Z,90.85
2023-01-07T21:18:33.102Z,90.81
2023-01-07T21:21:00.866Z,90.78
2023-01-07T21:23:27.816Z,90.90
2023-01-07T21:25:54.432Z,91.09
2023-01-07T21:28:21.187Z,91.38
2023-01-07T21:30:47.691Z,91.38
2023-01-07T21:33:15.199Z,91.17
2023-01-07T21:35:41.865Z,91.15
2023-01-07T21:38:08.830Z,91.16
2023-01-07T21:40:37.698Z,91.30
2023-01-07T21:43:04.309Z,91.47
2023-01-07T21:45:30.888Z,91.52
2023-01-07T21:47:57.426Z,91.82
2023-01-07T21:50:23.962Z,91.59
2023-01-07T21:52:50.461Z,91.55
2023-01-07T21:55:17.317Z,91.58
2023-01-07T21:57:43.888Z,91.47
2023-01-07T22:00:11.117Z,91.36
2023-01-07T22:02:38.718Z,91.38
2023-01-07T22:05:06.023Z,91.47
2023-01-07T22:07:32.660Z,91.52
2023-01-07T22:09:59.205Z,91.37
2023-01-07T22:12:25.825Z,91.22
2023-01-07T22:14:52.367Z,91.39
2023-01-07T22:17:23.784Z,91.17
2023-01-07T22:19:50.330Z,91.83
2023-01-07T22:22:18.705Z,91.97
2023-01-07T22:24:45.324Z,91.73
2023-01-07T22:27:11.981Z,91.63
2023-01-07T22:29:38.615Z,91.89
2023-01-07T22:32:05.123Z,91.97
2023-01-07T22:34:31.797Z,91.78
2023-01-07T22:37:07.013Z,92.04
2023-01-07T22:39:39.241Z,92.21
2023-01-07T22:42:13.823Z,92.03
2023-01-07T22:44:46.580Z,92.01
2023-01-07T22:47:16.859Z,91.95
2023-01-07T22:49:43.949Z,91.91
2023-01-07T22:52:11.087Z,91.99
2023-01-07T22:54:38.502Z,91.88
2023-01-07T22:57:08.212Z,91.89
2023-01-07T22:59:35.010Z,92.08
2023-01-07T23:02:01.584Z,92.26
2023-01-07T23:04:28.326Z,92.27
2023-01-07T23:06:54.905Z,91.98
2023-01-07T23:09:21.454Z,91.94
2023-01-07T23:11:48.007Z,92.21
2023-01-07T23:14:19.860Z,91.97
2023-01-07T23:16:47.196Z,91.66
2023-01-07T23:19:14.321Z,91.59
2023-01-07T23:21:43.171Z,91.60
2023-01-07T23:24:11.978Z,91.40
2023-01-07T23:26:38.832Z,91.12
2023-01-07T23:29:06.074Z,91.08
2023-01-07T23:31:33.933Z,91.15
2023-01-07T23:34:01.279Z,91.26
2023-01-07T23:36:28.178Z,91.15
2023-01-07T23:38:55.264Z,91.30
2023-01-07T23:41:22.325Z,91.67
2023-01-07T23:43:49.002Z,91.82
2023-01-07T23:46:16.213Z,91.63
2023-01-07T23:48:42.808Z,92.08
2023-01-07T23:51:18.889Z,92.44
2023-01-07T23:53:46.456Z,93.33
2023-01-07T23:56:14.099Z,93.01
2023-01-07T23:58:40.699Z,92.62
